Time,TemperatureF,DewpointF,PressureIn,WindDirection,WindDirectionDegrees,WindSpeedMPH,WindSpeedGustMPH,Humidity,HourlyPrecipIn,Conditions,Clouds,dailyrainin,SolarRadiationWatts/m^2,SoftwareType,DateUTC
2013-08-17 00:02:00,58.0,54.5,30.18,ESE,107,0.0,0.0,88,0.00,,,0.00,0,Wunderground v.1.15,2013-08-17 05:02:00,
2013-08-17 00:07:00,57.9,54.7,30.18,ESE,107,0.0,0.0,89,0.00,,,0.00,0,Wunderground v.1.15,2013-08-17 05:07:00,
2013-08-17 00:12:00,57.7,54.5,30.18,ESE,107,0.0,0.0,89,0.00,,,0.00,0,Wunderground v.1.15,2013-08-17 05:12:00,
2013-08-17 00:17:00,57.6,54.4,30.18,ESE,107,0.0,0.0,89,0.00,,,0.00,0,Wunderground v.1.15,2013-08-17 05:17:00,
2013-08-17 00:23:00,57.4,54.2,30.18,ESE,107,0.0,0.0,89,0.00,,,0.00,0,Wunderground v.1.15,2013-08-17 05:23:00,
2013-08-17 00:28:00,57.2,54.0,30.18,ESE,107,0.0,0.0,89,0.00,,,0.00,0,Wunderground v.1.15,2013-08-17 05:28:00,
2013-08-17 00:33:00,56.9,53.7,30.18,ESE,107,0.0,0.0,89,0.00,,,0.00,0,Wunderground v.1.15,2013-08-17 05:33:00,
2013-08-17 00:39:00,56.8,53.9,30.19,ESE,107,0.0,0.0,90,0.00,,,0.00,0,Wunderground v.1.15,2013-08-17 05:39:00,
2013-08-17 00:44:00,56.7,53.5,30.19,ESE,107,0.0,0.0,89,0.00,,,0.00,0,Wunderground v.1.15,2013-08-17 05:44:00,
2013-08-17 00:49:00,56.6,53.7,30.19,ESE,107,0.0,0.0,90,0.00,,,0.00,0,Wunderground v.1.15,2013-08-17 05:49:00,
2013-08-17 00:55:00,56.4,53.5,30.19,ESE,107,0.0,0.0,90,0.00,,,0.00,0,Wunderground v.1.15,2013-08-17 05:55:00,
2013-08-17 01:01:00,56.3,53.4,30.19,ESE,107,0.0,0.0,90,0.00,,,0.00,0,Wunderground v.1.15,2013-08-17 06:01:00,
2013-08-17 01:06:00,56.1,53.2,30.19,ESE,107,0.0,0.0,90,0.00,,,0.00,0,Wunderground v.1.15,2013-08-17 06:06:00,
2013-08-17 01:12:00,55.9,53.0,30.18,ESE,107,0.0,0.0,90,0.00,,,0.00,0,Wunderground v.1.15,2013-08-17 06:12:00,
2013-08-17 01:17:00,55.8,52.9,30.19,ESE,107,0.0,0.0,90,0.00,,,0.00,0,Wunderground v.1.15,2013-08-17 06:17:00,
2013-08-17 01:22:00,55.7,52.8,30.19,ESE,107,0.0,0.0,90,0.00,,,0.00,0,Wunderground v.1.15,2013-08-17 06:22:00,
2013-08-17 01:28:00,55.5,52.6,30.19,ESE,107,0.0,0.0,90,0.00,,,0.00,0,Wunderground v.1.15,2013-08-17 06:28:00,
2013-08-17 01:33:00,55.4,52.8,30.19,ESE,107,0.0,0.0,91,0.00,,,0.00,0,Wunderground v.1.15,2013-08-17 06:33:00,
2013-08-17 01:38:00,55.2,52.6,30.19,ESE,107,0.0,0.0,91,0.00,,,0.00,0,Wunderground v.1.15,2013-08-17 06:38:00,
2013-08-17 01:44:00,55.1,52.5,30.19,ESE,107,0.0,0.0,91,0.00,,,0.00,0,Wunderground v.1.15,2013-08-17 06:44:00,
2013-08-17 01:49:00,54.9,52.3,30.19,ESE,107,0.0,0.0,91,0.00,,,0.00,0,Wunderground v.1.15,2013-08-17 06:49:00,
2013-08-17 01:54:00,54.9,52.3,30.19,ESE,107,0.0,0.0,91,0.00,,,0.00,0,Wunderground v.1.15,2013-08-17 06:54:00,
2013-08-17 01:59:00,54.8,52.2,30.19,ESE,107,0.0,0.0,91,0.00,,,0.00,0,Wunderground v.1.15,2013-08-17 06:59:00,
2013-08-17 02:04:00,54.7,52.4,30.19,ESE,107,0.0,0.0,92,0.00,,,0.00,0,Wunderground v.1.15,2013-08-17 07:04:00,
2013-08-17 02:09:00,54.7,52.4,30.19,ESE,107,0.0,0.0,92,0.00,,,0.00,0,Wunderground v.1.15,2013-08-17 07:09:00,
2013-08-17 02:14:00,54.6,52.0,30.19,ESE,107,0.0,0.0,91,0.00,,,0.00,0,Wunderground v.1.15,2013-08-17 07:14:00,
2013-08-17 02:19:00,54.4,51.8,30.19,ESE,107,0.0,0.0,91,0.00,,,0.00,0,Wunderground v.1.15,2013-08-17 07:19:00,
2013-08-17 02:24:00,54.3,52.0,30.19,ESE,107,0.0,0.0,92,0.00,,,0.00,0,Wunderground v.1.15,2013-08-17 07:24:00,
2013-08-17 02:29:00,54.2,51.9,30.19,ESE,107,0.0,0.0,92,0.00,,,0.00,0,Wunderground v.1.15,2013-08-17 07:29:00,
2013-08-17 02:34:00,54.1,51.8,30.19,ESE,107,0.0,0.0,92,0.00,,,0.00,0,Wunderground v.1.15,2013-08-17 07:34:00,
2013-08-17 02:39:00,54.0,51.7,30.19,ESE,107,0.0,0.0,92,0.00,,,0.00,0,Wunderground v.1.15,2013-08-17 07:39:00,
2013-08-17 02:44:00,53.9,51.6,30.19,ESE,107,0.0,0.0,92,0.00,,,0.00,0,Wunderground v.1.15,2013-08-17 07:44:00,
2013-08-17 02:50:00,53.8,51.5,30.19,ESE,107,0.0,0.0,92,0.00,,,0.00,0,Wunderground v.1.15,2013-08-17 07:50:00,
2013-08-17 02:55:00,53.6,51.3,30.19,ESE,107,0.0,0.0,92,0.00,,,0.00,0,Wunderground v.1.15,2013-08-17 07:55:00,
2013-08-17 03:00:00,53.5,51.2,30.19,ESE,107,0.0,0.0,92,0.00,,,0.00,0,Wunderground v.1.15,2013-08-17 08:00:00,
2013-08-17 03:05:00,53.3,51.0,30.19,ESE,107,0.0,0.0,92,0.00,,,0.00,0,Wunderground v.1.15,2013-08-17 08:05:00,
2013-08-17 03:10:00,53.2,50.9,30.19,ESE,107,0.0,0.0,92,0.00,,,0.00,0,Wunderground v.1.15,2013-08-17 08:10:00,
2013-08-17 03:14:00,53.1,50.8,30.19,ESE,107,0.0,0.0,92,0.00,,,0.00,0,Wunderground v.1.15,2013-08-17 08:14:00,
2013-08-17 03:20:00,53.0,50.7,30.19,ESE,107,0.0,0.0,92,0.00,,,0.00,0,Wunderground v.1.15,2013-08-17 08:20:00,
2013-08-17 03:25:00,52.8,50.5,30.19,ESE,107,0.0,0.0,92,0.00,,,0.00,0,Wunderground v.1.15,2013-08-17 08:25:00,
2013-08-17 03:30:00,52.6,50.3,30.19,ESE,107,0.0,0.0,92,0.00,,,0.00,0,Wunderground v.1.15,2013-08-17 08:30:00,
2013-08-17 03:35:00,52.5,50.2,30.19,ESE,107,0.0,0.0,92,0.00,,,0.00,0,Wunderground v.1.15,2013-08-17 08:35:00,
2013-08-17 03:40:00,52.4,50.1,30.19,ESE,107,0.0,0.0,92,0.00,,,0.00,0,Wunderground v.1.15,2013-08-17 08:40:00,
2013-08-17 03:45:00,52.3,50.3,30.19,ESE,107,0.0,0.0,93,0.00,,,0.00,0,Wunderground v.1.15,2013-08-17 08:45:00,
2013-08-17 03:50:00,52.3,50.3,30.19,ESE,107,0.0,0.0,93,0.00,,,0.00,0,Wunderground v.1.15,2013-08-17 08:50:00,
2013-08-17 03:55:00,52.2,50.2,30.19,ESE,107,0.0,0.0,93,0.00,,,0.00,0,Wunderground v.1.15,2013-08-17 08:55:00,
2013-08-17 04:00:00,52.1,50.1,30.19,ESE,107,0.0,0.0,93,0.00,,,0.00,0,Wunderground v.1.15,2013-08-17 09:00:00,
2013-08-17 04:05:00,52.1,50.1,30.20,ESE,107,0.0,0.0,93,0.00,,,0.00,0,Wunderground v.1.15,2013-08-17 09:05:00,
2013-08-17 04:10:00,52.1,50.1,30.20,ESE,107,0.0,0.0,93,0.00,,,0.00,0,Wunderground v.1.15,2013-08-17 09:10:00,
2013-08-17 04:15:00,52.1,50.1,30.20,ESE,107,0.0,0.0,93,0.00,,,0.00,0,Wunderground v.1.15,2013-08-17 09:15:00,
2013-08-17 04:20:00,52.1,50.4,30.20,ESE,107,0.0,0.0,94,0.00,,,0.00,0,Wunderground v.1.15,2013-08-17 09:20:00,
2013-08-17 04:25:00,52.2,50.5,30.20,ESE,107,0.0,0.0,94,0.00,,,0.00,0,Wunderground v.1.15,2013-08-17 09:25:00,
2013-08-17 04:30:00,52.1,50.1,30.20,ESE,107,0.0,0.0,93,0.00,,,0.00,0,Wunderground v.1.15,2013-08-17 09:30:00,
2013-08-17 04:35:00,52.0,50.0,30.20,ESE,107,0.0,0.0,93,0.00,,,0.00,0,Wunderground v.1.15,2013-08-17 09:35:00,
2013-08-17 04:40:00,51.9,49.9,30.20,ESE,107,0.0,0.0,93,0.00,,,0.00,0,Wunderground v.1.15,2013-08-17 09:40:00,
2013-08-17 04:45:00,51.9,49.9,30.20,ESE,107,0.0,0.0,93,0.00,,,0.00,0,Wunderground v.1.15,2013-08-17 09:45:00,
2013-08-17 04:50:00,51.8,49.8,30.20,ESE,107,0.0,0.0,93,0.00,,,0.00,0,Wunderground v.1.15,2013-08-17 09:50:00,
2013-08-17 04:56:00,51.8,50.1,30.20,ESE,107,0.0,0.0,94,0.00,,,0.00,0,Wunderground v.1.15,2013-08-17 09:56:00,
2013-08-17 05:01:00,51.8,50.1,30.20,ESE,107,0.0,0.0,94,0.00,,,0.00,0,Wunderground v.1.15,2013-08-17 10:01:00,
2013-08-17 05:06:00,51.9,50.2,30.21,ESE,107,0.0,0.0,94,0.00,,,0.00,0,Wunderground v.1.15,2013-08-17 10:06:00,
2013-08-17 05:11:00,52.3,50.9,30.21,ESE,107,0.0,0.0,95,0.00,,,0.00,0,Wunderground v.1.15,2013-08-17 10:11:00,
2013-08-17 05:16:00,52.4,51.0,30.21,ESE,107,0.0,0.0,95,0.00,,,0.00,0,Wunderground v.1.15,2013-08-17 10:16:00,
2013-08-17 05:21:00,52.3,50.6,30.21,ESE,107,0.0,0.0,94,0.00,,,0.00,0,Wunderground v.1.15,2013-08-17 10:21:00,
2013-08-17 05:26:00,52.1,50.1,30.21,ESE,107,0.0,0.0,93,0.00,,,0.00,0,Wunderground v.1.15,2013-08-17 10:26:00,
2013-08-17 05:31:00,51.9,49.9,30.21,ESE,107,0.0,0.0,93,0.00,,,0.00,0,Wunderground v.1.15,2013-08-17 10:31:00,
2013-08-17 05:36:00,51.8,50.1,30.21,ESE,107,0.0,0.0,94,0.00,,,0.00,0,Wunderground v.1.15,2013-08-17 10:36:00,
2013-08-17 05:41:00,51.7,50.0,30.21,ESE,107,0.0,0.0,94,0.00,,,0.00,0,Wunderground v.1.15,2013-08-17 10:41:00,
2013-08-17 05:46:00,51.7,50.0,30.22,ESE,107,0.0,0.0,94,0.00,,,0.00,0,Wunderground v.1.15,2013-08-17 10:46:00,
2013-08-17 05:51:00,51.7,50.0,30.21,ESE,107,0.0,0.0,94,0.00,,,0.00,0,Wunderground v.1.15,2013-08-17 10:51:00,
2013-08-17 05:56:00,51.6,49.9,30.21,ESE,107,0.0,0.0,94,0.00,,,0.00,0,Wunderground v.1.15,2013-08-17 10:56:00,
2013-08-17 06:01:00,51.5,49.8,30.21,ESE,107,0.0,0.0,94,0.00,,,0.00,0,Wunderground v.1.15,2013-08-17 11:01:00,
2013-08-17 06:06:00,51.5,49.8,30.22,ESE,107,0.0,0.0,94,0.00,,,0.00,5,Wunderground v.1.15,2013-08-17 11:06:00,
2013-08-17 06:11:00,51.3,49.6,30.21,ESE,107,0.0,0.0,94,0.00,,,0.00,7,Wunderground v.1.15,2013-08-17 11:11:00,
2013-08-17 06:16:00,51.2,49.5,30.21,ESE,107,0.0,0.0,94,0.00,,,0.00,11,Wunderground v.1.15,2013-08-17 11:16:00,
2013-08-17 06:21:00,51.2,49.5,30.21,ESE,107,0.0,0.0,94,0.00,,,0.00,14,Wunderground v.1.15,2013-08-17 11:21:00,
2013-08-17 06:26:00,51.2,49.5,30.21,ESE,107,0.0,0.0,94,0.00,,,0.00,21,Wunderground v.1.15,2013-08-17 11:26:00,
2013-08-17 06:31:00,51.3,49.6,30.22,ESE,107,0.0,0.0,94,0.00,,,0.00,30,Wunderground v.1.15,2013-08-17 11:31:00,
2013-08-17 06:36:00,51.4,50.0,30.22,ESE,107,0.0,0.0,95,0.00,,,0.00,39,Wunderground v.1.15,2013-08-17 11:36:00,
2013-08-17 06:41:00,51.6,50.2,30.22,ESE,107,0.0,0.0,95,0.00,,,0.00,47,Wunderground v.1.15,2013-08-17 11:41:00,
2013-08-17 06:46:00,51.9,50.5,30.22,ESE,107,0.0,0.0,95,0.00,,,0.00,60,Wunderground v.1.15,2013-08-17 11:46:00,
2013-08-17 06:51:00,52.2,50.8,30.22,ESE,107,0.0,0.0,95,0.00,,,0.00,69,Wunderground v.1.15,2013-08-17 11:51:00,
2013-08-17 06:56:00,52.6,51.2,30.22,ESE,107,0.0,0.0,95,0.00,,,0.00,81,Wunderground v.1.15,2013-08-17 11:56:00,
2013-08-17 07:01:00,53.0,51.9,30.22,ESE,107,0.0,0.0,96,0.00,,,0.00,95,Wunderground v.1.15,2013-08-17 12:01:00,
2013-08-17 07:07:00,53.4,52.3,30.22,ESE,107,0.0,0.0,96,0.00,,,0.00,109,Wunderground v.1.15,2013-08-17 12:07:00,
2013-08-17 07:12:00,53.8,52.7,30.22,ESE,107,0.0,0.0,96,0.00,,,0.00,125,Wunderground v.1.15,2013-08-17 12:12:00,
2013-08-17 07:17:00,54.4,53.3,30.22,ESE,107,0.0,0.0,96,0.00,,,0.00,142,Wunderground v.1.15,2013-08-17 12:17:00,
2013-08-17 07:22:00,55.1,54.0,30.22,ESE,107,0.0,0.0,96,0.00,,,0.00,156,Wunderground v.1.15,2013-08-17 12:22:00,
2013-08-17 07:27:00,55.9,54.8,30.22,ESE,107,0.0,0.0,96,0.00,,,0.00,172,Wunderground v.1.15,2013-08-17 12:27:00,
2013-08-17 07:32:00,56.6,55.5,30.22,ESE,107,0.0,0.0,96,0.00,,,0.00,188,Wunderground v.1.15,2013-08-17 12:32:00,
2013-08-17 07:37:00,57.4,56.3,30.23,ESE,107,0.0,0.0,96,0.00,,,0.00,204,Wunderground v.1.15,2013-08-17 12:37:00,
2013-08-17 07:42:00,58.0,56.9,30.23,ESE,107,0.0,0.0,96,0.00,,,0.00,218,Wunderground v.1.15,2013-08-17 12:42:00,
2013-08-17 07:47:00,58.5,57.1,30.23,ESE,107,0.0,0.0,95,0.00,,,0.00,230,Wunderground v.1.15,2013-08-17 12:47:00,
2013-08-17 07:52:00,59.1,57.4,30.23,ESE,107,0.0,0.0,94,0.00,,,0.00,244,Wunderground v.1.15,2013-08-17 12:52:00,
2013-08-17 07:57:00,59.8,57.8,30.23,ESE,107,0.0,0.0,93,0.00,,,0.00,258,Wunderground v.1.15,2013-08-17 12:57:00,
2013-08-17 08:02:00,60.2,57.9,30.23,ESE,107,0.0,0.0,92,0.00,,,0.00,274,Wunderground v.1.15,2013-08-17 13:02:00,
2013-08-17 08:07:00,60.6,58.0,30.23,ESE,107,0.0,0.0,91,0.00,,,0.00,292,Wunderground v.1.15,2013-08-17 13:07:00,
2013-08-17 08:12:00,61.1,58.1,30.23,ESE,107,0.0,0.0,90,0.00,,,0.00,308,Wunderground v.1.15,2013-08-17 13:12:00,
2013-08-17 08:17:00,61.6,58.3,30.23,ESE,107,0.0,0.0,89,0.00,,,0.00,327,Wunderground v.1.15,2013-08-17 13:17:00,
2013-08-17 08:22:00,62.2,58.9,30.23,ESE,107,0.0,0.0,89,0.00,,,0.00,350,Wunderground v.1.15,2013-08-17 13:22:00,
2013-08-17 08:27:00,62.9,59.3,30.23,ESE,107,1.0,1.0,88,0.00,,,0.00,373,Wunderground v.1.15,2013-08-17 13:27:00,
2013-08-17 08:32:00,63.4,59.5,30.23,ESE,107,0.0,1.0,87,0.00,,,0.00,392,Wunderground v.1.15,2013-08-17 13:32:00,
2013-08-17 08:37:00,64.0,60.1,30.23,ESE,107,0.0,2.0,87,0.00,,,0.00,410,Wunderground v.1.15,2013-08-17 13:37:00,
2013-08-17 08:43:00,64.5,60.2,30.23,ESE,107,2.0,2.0,86,0.00,,,0.00,429,Wunderground v.1.15,2013-08-17 13:43:00,
2013-08-17 08:48:00,65.1,60.8,30.23,SE,132,0.0,4.0,86,0.00,,,0.00,443,Wunderground v.1.15,2013-08-17 13:48:00,
2013-08-17 08:53:00,65.7,60.7,30.23,South,184,2.0,5.0,84,0.00,,,0.00,457,Wunderground v.1.15,2013-08-17 13:53:00,
2013-08-17 08:58:00,66.3,61.0,30.23,South,170,3.0,5.0,83,0.00,,,0.00,473,Wunderground v.1.15,2013-08-17 13:58:00,
2013-08-17 09:03:00,66.7,60.7,30.23,South,170,1.0,3.0,81,0.00,,,0.00,489,Wunderground v.1.15,2013-08-17 14:03:00,
2013-08-17 09:08:00,67.3,61.3,30.23,South,170,0.0,4.0,81,0.00,,,0.00,503,Wunderground v.1.15,2013-08-17 14:08:00,
2013-08-17 09:13:00,67.9,61.1,30.23,South,169,4.0,4.0,79,0.00,,,0.00,519,Wunderground v.1.15,2013-08-17 14:13:00,
2013-08-17 09:18:00,68.2,60.7,30.23,South,176,1.0,6.0,77,0.00,,,0.00,531,Wunderground v.1.15,2013-08-17 14:18:00,
2013-08-17 09:23:00,68.5,59.9,30.23,South,174,1.0,6.0,74,0.00,,,0.00,547,Wunderground v.1.15,2013-08-17 14:23:00,
2013-08-17 09:28:00,69.0,60.4,30.23,SSE,165,5.0,6.0,74,0.00,,,0.00,566,Wunderground v.1.15,2013-08-17 14:28:00,
2013-08-17 09:33:00,69.4,60.0,30.23,ESE,120,4.0,5.0,72,0.00,,,0.00,578,Wunderground v.1.15,2013-08-17 14:33:00,
2013-08-17 09:38:00,69.8,60.0,30.23,South,170,3.0,5.0,71,0.00,,,0.00,591,Wunderground v.1.15,2013-08-17 14:38:00,
2013-08-17 09:43:00,70.2,60.4,30.23,SW,228,2.0,5.0,71,0.00,,,0.00,606,Wunderground v.1.15,2013-08-17 14:43:00,
2013-08-17 09:48:00,70.5,60.2,30.23,South,185,2.0,5.0,70,0.00,,,0.00,619,Wunderground v.1.15,2013-08-17 14:48:00,
2013-08-17 09:53:00,71.0,60.7,30.23,SW,219,1.0,5.0,70,0.00,,,0.00,628,Wunderground v.1.15,2013-08-17 14:53:00,
2013-08-17 09:58:00,71.3,60.6,30.23,SSE,159,3.0,5.0,69,0.00,,,0.00,636,Wunderground v.1.15,2013-08-17 14:58:00,
2013-08-17 10:03:00,71.6,60.9,30.23,South,176,4.0,4.0,69,0.00,,,0.00,654,Wunderground v.1.15,2013-08-17 15:03:00,
2013-08-17 10:08:00,71.7,60.6,30.23,SSE,165,0.0,4.0,68,0.00,,,0.00,666,Wunderground v.1.15,2013-08-17 15:08:00,
2013-08-17 10:13:00,72.0,60.0,30.23,South,170,4.0,5.0,66,0.00,,,0.00,680,Wunderground v.1.15,2013-08-17 15:13:00,
2013-08-17 10:18:00,72.1,60.5,30.23,South,169,4.0,5.0,67,0.00,,,0.00,691,Wunderground v.1.15,2013-08-17 15:18:00,
2013-08-17 10:23:00,72.2,60.2,30.23,WSW,244,0.0,5.0,66,0.00,,,0.00,701,Wunderground v.1.15,2013-08-17 15:23:00,
2013-08-17 10:28:00,72.6,60.6,30.23,South,170,1.0,6.0,66,0.00,,,0.00,714,Wunderground v.1.15,2013-08-17 15:28:00,
2013-08-17 10:33:00,72.9,60.4,30.23,SSE,167,3.0,4.0,65,0.00,,,0.00,722,Wunderground v.1.15,2013-08-17 15:33:00,
2013-08-17 10:38:00,73.1,60.6,30.23,SSW,202,0.0,5.0,65,0.00,,,0.00,731,Wunderground v.1.15,2013-08-17 15:38:00,
2013-08-17 10:44:00,73.6,60.7,30.23,South,177,0.0,2.0,64,0.00,,,0.00,738,Wunderground v.1.15,2013-08-17 15:44:00,
2013-08-17 10:49:00,74.2,59.9,30.23,South,169,4.0,5.0,61,0.00,,,0.00,749,Wunderground v.1.15,2013-08-17 15:49:00,
2013-08-17 10:54:00,74.4,59.1,30.23,South,183,1.0,5.0,59,0.00,,,0.00,761,Wunderground v.1.15,2013-08-17 15:54:00,
2013-08-17 10:59:00,74.4,58.7,30.23,South,178,0.0,5.0,58,0.00,,,0.00,768,Wunderground v.1.15,2013-08-17 15:59:00,
2013-08-17 11:04:00,74.9,58.6,30.23,SSE,161,5.0,5.0,57,0.00,,,0.00,777,Wunderground v.1.15,2013-08-17 16:04:00,
2013-08-17 11:09:00,75.3,58.5,30.23,SSW,209,1.0,5.0,56,0.00,,,0.00,788,Wunderground v.1.15,2013-08-17 16:09:00,
2013-08-17 11:14:00,75.5,59.2,30.23,South,182,0.0,6.0,57,0.00,,,0.00,795,Wunderground v.1.15,2013-08-17 16:14:00,
2013-08-17 11:19:00,75.9,59.1,30.23,South,178,0.0,6.0,56,0.00,,,0.00,802,Wunderground v.1.15,2013-08-17 16:19:00,
2013-08-17 11:24:00,76.3,59.9,30.23,SSW,196,0.0,4.0,57,0.00,,,0.00,807,Wunderground v.1.15,2013-08-17 16:24:00,
2013-08-17 11:29:00,76.5,59.6,30.22,South,171,5.0,6.0,56,0.00,,,0.00,812,Wunderground v.1.15,2013-08-17 16:29:00,
2013-08-17 11:34:00,76.3,60.4,30.22,South,174,2.0,8.0,58,0.00,,,0.00,821,Wunderground v.1.15,2013-08-17 16:34:00,
2013-08-17 11:39:00,76.3,58.9,30.22,SSE,165,6.0,8.0,55,0.00,,,0.00,828,Wunderground v.1.15,2013-08-17 16:39:00,
2013-08-17 11:44:00,75.9,58.1,30.22,SSE,160,0.0,10.0,54,0.00,,,0.00,835,Wunderground v.1.15,2013-08-17 16:44:00,
2013-08-17 11:49:00,76.0,59.2,30.22,South,169,3.0,10.0,56,0.00,,,0.00,842,Wunderground v.1.15,2013-08-17 16:49:00,
2013-08-17 11:54:00,76.3,57.4,30.22,SSE,162,4.0,8.0,52,0.00,,,0.00,847,Wunderground v.1.15,2013-08-17 16:54:00,
2013-08-17 11:59:00,76.3,58.9,30.22,SSE,161,1.0,8.0,55,0.00,,,0.00,851,Wunderground v.1.15,2013-08-17 16:59:00,
2013-08-17 12:04:00,76.4,58.5,30.21,SW,216,2.0,7.0,54,0.00,,,0.00,853,Wunderground v.1.15,2013-08-17 17:04:00,
2013-08-17 12:09:00,76.7,57.7,30.21,South,189,0.0,7.0,52,0.00,,,0.00,858,Wunderground v.1.15,2013-08-17 17:09:00,
2013-08-17 12:14:00,76.8,57.8,30.21,SSE,165,3.0,7.0,52,0.00,,,0.00,865,Wunderground v.1.15,2013-08-17 17:14:00,
2013-08-17 12:19:00,76.8,58.9,30.21,SSE,155,0.0,7.0,54,0.00,,,0.00,867,Wunderground v.1.15,2013-08-17 17:19:00,
2013-08-17 12:24:00,77.0,58.6,30.21,SSE,167,6.0,6.0,53,0.00,,,0.00,868,Wunderground v.1.15,2013-08-17 17:24:00,
2013-08-17 12:29:00,77.1,59.2,30.21,South,174,0.0,1.0,54,0.00,,,0.00,868,Wunderground v.1.15,2013-08-17 17:29:00,
2013-08-17 12:34:00,77.2,58.2,30.21,South,175,5.0,6.0,52,0.00,,,0.00,868,Wunderground v.1.15,2013-08-17 17:34:00,
2013-08-17 12:40:00,77.3,58.3,30.20,SW,226,1.0,2.0,52,0.00,,,0.00,874,Wunderground v.1.15,2013-08-17 17:40:00,
2013-08-17 12:45:00,77.7,58.1,30.20,South,173,1.0,5.0,51,0.00,,,0.00,872,Wunderground v.1.15,2013-08-17 17:45:00,
2013-08-17 12:50:00,77.9,59.4,30.20,SSE,153,0.0,1.0,53,0.00,,,0.00,874,Wunderground v.1.15,2013-08-17 17:50:00,
2013-08-17 12:55:00,78.0,60.0,30.20,South,171,1.0,7.0,54,0.00,,,0.00,879,Wunderground v.1.15,2013-08-17 17:55:00,
2013-08-17 13:00:00,78.3,59.8,30.20,South,175,0.0,1.0,53,0.00,,,0.00,874,Wunderground v.1.15,2013-08-17 18:00:00,
2013-08-17 13:05:00,78.4,60.9,30.20,South,173,3.0,5.0,55,0.00,,,0.00,877,Wunderground v.1.15,2013-08-17 18:05:00,
2013-08-17 13:10:00,78.5,59.4,30.19,South,173,3.0,4.0,52,0.00,,,0.00,884,Wunderground v.1.15,2013-08-17 18:10:00,
2013-08-17 13:15:00,78.2,59.7,30.19,SSE,155,4.0,8.0,53,0.00,,,0.00,884,Wunderground v.1.15,2013-08-17 18:15:00,
2013-08-17 13:20:00,78.1,59.6,30.19,West,271,3.0,3.0,53,0.00,,,0.00,886,Wunderground v.1.15,2013-08-17 18:20:00,
2013-08-17 13:25:00,78.2,58.6,30.19,WSW,239,1.0,5.0,51,0.00,,,0.00,877,Wunderground v.1.15,2013-08-17 18:25:00,
2013-08-17 13:30:00,78.7,59.0,30.19,WSW,243,0.0,1.0,51,0.00,,,0.00,884,Wunderground v.1.15,2013-08-17 18:30:00,
2013-08-17 13:35:00,78.9,59.2,30.19,SSE,163,1.0,5.0,51,0.00,,,0.00,896,Wunderground v.1.15,2013-08-17 18:35:00,
2013-08-17 13:40:00,79.0,59.9,30.19,WSW,253,2.0,3.0,52,0.00,,,0.00,904,Wunderground v.1.15,2013-08-17 18:40:00,
2013-08-17 13:45:00,79.3,61.7,30.19,SSW,207,0.0,7.0,55,0.00,,,0.00,868,Wunderground v.1.15,2013-08-17 18:45:00,
2013-08-17 13:50:00,79.5,59.8,30.19,SSE,155,3.0,3.0,51,0.00,,,0.00,858,Wunderground v.1.15,2013-08-17 18:50:00,
2013-08-17 13:55:00,79.6,59.3,30.18,SW,226,0.0,3.0,50,0.00,,,0.00,870,Wunderground v.1.15,2013-08-17 18:55:00,
2013-08-17 14:00:00,79.4,59.7,30.18,SSW,205,0.0,1.0,51,0.00,,,0.00,860,Wunderground v.1.15,2013-08-17 19:00:00,
2013-08-17 14:05:00,79.4,59.1,30.18,South,184,0.0,6.0,50,0.00,,,0.00,844,Wunderground v.1.15,2013-08-17 19:05:00,
2013-08-17 14:10:00,79.4,59.7,30.18,SSW,199,1.0,2.0,51,0.00,,,0.00,826,Wunderground v.1.15,2013-08-17 19:10:00,
2013-08-17 14:15:00,79.5,58.7,30.18,South,173,3.0,6.0,49,0.00,,,0.00,846,Wunderground v.1.15,2013-08-17 19:15:00,
2013-08-17 14:21:00,79.3,59.6,30.18,SSW,194,1.0,6.0,51,0.00,,,0.00,853,Wunderground v.1.15,2013-08-17 19:21:00,
2013-08-17 14:26:00,79.6,60.4,30.18,SSW,195,2.0,6.0,52,0.00,,,0.00,831,Wunderground v.1.15,2013-08-17 19:26:00,
2013-08-17 14:31:00,80.0,59.1,30.18,WSW,248,0.0,3.0,49,0.00,,,0.00,824,Wunderground v.1.15,2013-08-17 19:31:00,
2013-08-17 14:36:00,80.3,58.8,30.18,SW,233,2.0,5.0,48,0.00,,,0.00,817,Wunderground v.1.15,2013-08-17 19:36:00,
2013-08-17 14:41:00,80.0,58.5,30.18,South,169,2.0,2.0,48,0.00,,,0.00,812,Wunderground v.1.15,2013-08-17 19:41:00,
2013-08-17 14:46:00,79.8,58.9,30.17,SSE,167,3.0,6.0,49,0.00,,,0.00,824,Wunderground v.1.15,2013-08-17 19:46:00,
2013-08-17 14:51:00,79.4,59.7,30.17,SSW,201,1.0,3.0,51,0.00,,,0.00,803,Wunderground v.1.15,2013-08-17 19:51:00,
2013-08-17 14:56:00,79.4,59.7,30.17,South,178,0.0,5.0,51,0.00,,,0.00,779,Wunderground v.1.15,2013-08-17 19:56:00,
2013-08-17 15:01:00,79.7,60.5,30.17,South,174,4.0,5.0,52,0.00,,,0.00,765,Wunderground v.1.15,2013-08-17 20:01:00,
2013-08-17 15:06:00,79.7,60.0,30.17,WSW,237,2.0,6.0,51,0.00,,,0.00,766,Wunderground v.1.15,2013-08-17 20:06:00,
2013-08-17 15:11:00,79.7,58.3,30.17,South,172,1.0,5.0,48,0.00,,,0.00,752,Wunderground v.1.15,2013-08-17 20:11:00,
2013-08-17 15:16:00,79.7,58.8,30.17,South,178,1.0,6.0,49,0.00,,,0.00,742,Wunderground v.1.15,2013-08-17 20:16:00,
2013-08-17 15:21:00,79.6,57.6,30.17,WSW,239,0.0,2.0,47,0.00,,,0.00,729,Wunderground v.1.15,2013-08-17 20:21:00,
2013-08-17 15:26:00,79.7,58.3,30.17,WSW,241,3.0,4.0,48,0.00,,,0.00,722,Wunderground v.1.15,2013-08-17 20:26:00,
2013-08-17 15:31:00,80.2,58.7,30.17,SSE,147,3.0,4.0,48,0.00,,,0.00,707,Wunderground v.1.15,2013-08-17 20:31:00,
2013-08-17 15:36:00,80.3,58.2,30.17,SE,140,0.0,5.0,47,0.00,,,0.00,693,Wunderground v.1.15,2013-08-17 20:36:00,
2013-08-17 15:41:00,80.2,58.7,30.17,South,189,0.0,3.0,48,0.00,,,0.00,680,Wunderground v.1.15,2013-08-17 20:41:00,
2013-08-17 15:46:00,80.2,58.1,30.17,SSE,163,2.0,5.0,47,0.00,,,0.00,671,Wunderground v.1.15,2013-08-17 20:46:00,
2013-08-17 15:51:00,79.7,58.3,30.17,South,182,0.0,1.0,48,0.00,,,0.00,654,Wunderground v.1.15,2013-08-17 20:51:00,
2013-08-17 15:56:00,79.7,58.8,30.17,SSE,163,7.0,7.0,49,0.00,,,0.00,640,Wunderground v.1.15,2013-08-17 20:56:00,
2013-08-17 16:01:00,79.6,58.8,30.16,WSW,240,5.0,6.0,49,0.00,,,0.00,629,Wunderground v.1.15,2013-08-17 21:01:00,
2013-08-17 16:06:00,79.7,57.7,30.16,SSW,193,0.0,6.0,47,0.00,,,0.00,621,Wunderground v.1.15,2013-08-17 21:06:00,
2013-08-17 16:11:00,79.8,58.4,30.16,SSE,168,2.0,3.0,48,0.00,,,0.00,603,Wunderground v.1.15,2013-08-17 21:11:00,
2013-08-17 16:16:00,79.6,58.2,30.16,SE,140,4.0,5.0,48,0.00,,,0.00,592,Wunderground v.1.15,2013-08-17 21:16:00,
2013-08-17 16:21:00,79.3,57.9,30.16,SSW,202,4.0,6.0,48,0.00,,,0.00,577,Wunderground v.1.15,2013-08-17 21:21:00,
2013-08-17 16:26:00,79.1,57.7,30.17,South,184,0.0,6.0,48,0.00,,,0.00,561,Wunderground v.1.15,2013-08-17 21:26:00,
2013-08-17 16:31:00,79.2,57.8,30.16,SSW,194,0.0,4.0,48,0.00,,,0.00,547,Wunderground v.1.15,2013-08-17 21:31:00,
2013-08-17 16:36:00,79.2,57.2,30.16,South,172,1.0,4.0,47,0.00,,,0.00,536,Wunderground v.1.15,2013-08-17 21:36:00,
2013-08-17 16:41:00,79.2,57.2,30.16,South,169,0.0,4.0,47,0.00,,,0.00,520,Wunderground v.1.15,2013-08-17 21:41:00,
2013-08-17 16:46:00,79.2,56.0,30.17,South,174,1.0,4.0,45,0.00,,,0.00,503,Wunderground v.1.15,2013-08-17 21:46:00,
2013-08-17 16:51:00,79.1,55.3,30.16,South,174,0.0,1.0,44,0.00,,,0.00,489,Wunderground v.1.15,2013-08-17 21:51:00,
2013-08-17 16:56:00,79.0,57.0,30.16,South,173,0.0,5.0,47,0.00,,,0.00,473,Wunderground v.1.15,2013-08-17 21:56:00,
2013-08-17 17:01:00,78.9,57.5,30.16,South,173,0.0,3.0,48,0.00,,,0.00,461,Wunderground v.1.15,2013-08-17 22:01:00,
2013-08-17 17:07:00,78.8,58.0,30.16,South,173,0.0,4.0,49,0.00,,,0.00,439,Wunderground v.1.15,2013-08-17 22:07:00,
2013-08-17 17:12:00,79.0,57.6,30.16,WSW,246,0.0,3.0,48,0.00,,,0.00,425,Wunderground v.1.15,2013-08-17 22:12:00,
2013-08-17 17:17:00,78.9,58.1,30.16,SSE,152,0.0,3.0,49,0.00,,,0.00,415,Wunderground v.1.15,2013-08-17 22:17:00,
2013-08-17 17:22:00,78.8,57.4,30.16,WSW,247,1.0,3.0,48,0.00,,,0.00,399,Wunderground v.1.15,2013-08-17 22:22:00,
2013-08-17 17:27:00,78.8,57.4,30.16,SSE,164,4.0,6.0,48,0.00,,,0.00,383,Wunderground v.1.15,2013-08-17 22:27:00,
2013-08-17 17:32:00,78.5,58.3,30.15,South,173,2.0,3.0,50,0.00,,,0.00,367,Wunderground v.1.15,2013-08-17 22:32:00,
2013-08-17 17:37:00,78.2,56.9,30.15,South,174,1.0,4.0,48,0.00,,,0.00,352,Wunderground v.1.15,2013-08-17 22:37:00,
2013-08-17 17:42:00,78.0,57.9,30.15,SSW,193,1.0,4.0,50,0.00,,,0.00,334,Wunderground v.1.15,2013-08-17 22:42:00,
2013-08-17 17:47:00,77.9,58.3,30.15,South,184,0.0,4.0,51,0.00,,,0.00,316,Wunderground v.1.15,2013-08-17 22:47:00,
2013-08-17 17:52:00,77.7,57.6,30.15,SSE,167,2.0,4.0,50,0.00,,,0.00,306,Wunderground v.1.15,2013-08-17 22:52:00,
2013-08-17 17:57:00,77.5,57.4,30.15,South,182,2.0,4.0,50,0.00,,,0.00,294,Wunderground v.1.15,2013-08-17 22:57:00,
2013-08-17 18:02:00,77.4,57.9,30.15,South,184,0.0,2.0,51,0.00,,,0.00,276,Wunderground v.1.15,2013-08-17 23:02:00,
2013-08-17 18:07:00,77.3,57.8,30.15,South,184,1.0,2.0,51,0.00,,,0.00,260,Wunderground v.1.15,2013-08-17 23:07:00,
2013-08-17 18:12:00,77.0,58.0,30.15,South,184,0.0,1.0,52,0.00,,,0.00,199,Wunderground v.1.15,2013-08-17 23:12:00,
2013-08-17 18:17:00,76.9,57.4,30.15,South,184,0.0,1.0,51,0.00,,,0.00,90,Wunderground v.1.15,2013-08-17 23:17:00,
2013-08-17 18:22:00,76.8,58.4,30.15,South,184,0.0,2.0,53,0.00,,,0.00,49,Wunderground v.1.15,2013-08-17 23:22:00,
2013-08-17 18:27:00,76.6,58.2,30.15,South,184,2.0,2.0,53,0.00,,,0.00,46,Wunderground v.1.15,2013-08-17 23:27:00,
2013-08-17 18:32:00,76.4,57.5,30.15,South,182,0.0,3.0,52,0.00,,,0.00,46,Wunderground v.1.15,2013-08-17 23:32:00,
2013-08-17 18:37:00,76.2,57.8,30.15,South,182,0.0,3.0,53,0.00,,,0.00,51,Wunderground v.1.15,2013-08-17 23:37:00,
2013-08-17 18:42:00,76.1,58.2,30.15,South,182,0.0,1.0,54,0.00,,,0.00,42,Wunderground v.1.15,2013-08-17 23:42:00,
2013-08-17 18:47:00,75.9,58.6,30.15,South,182,0.0,2.0,55,0.00,,,0.00,40,Wunderground v.1.15,2013-08-17 23:47:00,
2013-08-17 18:52:00,75.6,58.8,30.14,South,182,0.0,2.0,56,0.00,,,0.00,39,Wunderground v.1.15,2013-08-17 23:52:00,
2013-08-17 18:57:00,75.1,58.3,30.14,South,182,0.0,2.0,56,0.00,,,0.00,35,Wunderground v.1.15,2013-08-17 23:57:00,
2013-08-17 19:02:00,74.8,58.1,30.14,South,182,0.0,0.0,56,0.00,,,0.00,35,Wunderground v.1.15,2013-08-18 00:02:00,
2013-08-17 19:07:00,74.5,57.8,30.15,South,182,0.0,0.0,56,0.00,,,0.00,32,Wunderground v.1.15,2013-08-18 00:07:00,
2013-08-17 19:12:00,74.4,58.2,30.15,South,182,0.0,0.0,57,0.00,,,0.00,33,Wunderground v.1.15,2013-08-18 00:12:00,
2013-08-17 19:17:00,74.2,57.5,30.15,South,182,0.0,0.0,56,0.00,,,0.00,32,Wunderground v.1.15,2013-08-18 00:17:00,
2013-08-17 19:22:00,74.0,58.3,30.15,South,182,0.0,0.0,58,0.00,,,0.00,28,Wunderground v.1.15,2013-08-18 00:22:00,
2013-08-17 19:27:00,73.7,58.5,30.14,South,182,0.0,0.0,59,0.00,,,0.00,21,Wunderground v.1.15,2013-08-18 00:27:00,
2013-08-17 19:32:00,73.5,58.3,30.14,South,182,0.0,0.0,59,0.00,,,0.00,19,Wunderground v.1.15,2013-08-18 00:32:00,
2013-08-17 19:37:00,73.2,58.0,30.14,South,182,0.0,0.0,59,0.00,,,0.00,16,Wunderground v.1.15,2013-08-18 00:37:00,
2013-08-17 19:43:00,73.1,58.4,30.14,South,182,0.0,0.0,60,0.00,,,0.00,12,Wunderground v.1.15,2013-08-18 00:43:00,
2013-08-17 19:48:00,72.7,57.1,30.14,South,182,0.0,0.0,58,0.00,,,0.00,9,Wunderground v.1.15,2013-08-18 00:48:00,
2013-08-17 19:53:00,72.2,58.5,30.14,South,182,0.0,0.0,62,0.00,,,0.00,7,Wunderground v.1.15,2013-08-18 00:53:00,
2013-08-17 19:58:00,71.7,58.0,30.14,South,182,0.0,0.0,62,0.00,,,0.00,0,Wunderground v.1.15,2013-08-18 00:58:00,
2013-08-17 20:03:00,71.2,58.8,30.14,South,182,0.0,0.0,65,0.00,,,0.00,0,Wunderground v.1.15,2013-08-18 01:03:00,
2013-08-17 20:08:00,70.6,58.7,30.14,South,182,0.0,0.0,66,0.00,,,0.00,0,Wunderground v.1.15,2013-08-18 01:08:00,
2013-08-17 20:13:00,70.1,59.0,30.14,South,182,0.0,0.0,68,0.00,,,0.00,0,Wunderground v.1.15,2013-08-18 01:13:00,
2013-08-17 20:18:00,69.5,58.9,30.14,South,182,0.0,0.0,69,0.00,,,0.00,0,Wunderground v.1.15,2013-08-18 01:18:00,
2013-08-17 20:23:00,69.0,58.8,30.14,South,182,0.0,0.0,70,0.00,,,0.00,0,Wunderground v.1.15,2013-08-18 01:23:00,
2013-08-17 20:28:00,68.4,58.6,30.14,South,182,0.0,0.0,71,0.00,,,0.00,0,Wunderground v.1.15,2013-08-18 01:28:00,
2013-08-17 20:33:00,67.9,58.5,30.14,South,182,0.0,0.0,72,0.00,,,0.00,0,Wunderground v.1.15,2013-08-18 01:33:00,
2013-08-17 20:38:00,67.4,58.4,30.14,South,182,0.0,0.0,73,0.00,,,0.00,0,Wunderground v.1.15,2013-08-18 01:38:00,
2013-08-17 20:43:00,66.9,58.3,30.14,South,182,0.0,0.0,74,0.00,,,0.00,0,Wunderground v.1.15,2013-08-18 01:43:00,
2013-08-17 20:48:00,66.4,57.9,30.15,South,182,0.0,0.0,74,0.00,,,0.00,0,Wunderground v.1.15,2013-08-18 01:48:00,
2013-08-17 20:53:00,65.9,57.7,30.15,South,182,0.0,0.0,75,0.00,,,0.00,0,Wunderground v.1.15,2013-08-18 01:53:00,
2013-08-17 20:58:00,65.4,57.6,30.15,South,182,0.0,0.0,76,0.00,,,0.00,0,Wunderground v.1.15,2013-08-18 01:58:00,
2013-08-17 21:03:00,64.9,57.5,30.15,South,182,0.0,0.0,77,0.00,,,0.00,0,Wunderground v.1.15,2013-08-18 02:03:00,
2013-08-17 21:08:00,64.4,57.4,30.15,South,182,0.0,0.0,78,0.00,,,0.00,0,Wunderground v.1.15,2013-08-18 02:08:00,
2013-08-17 21:14:00,64.0,57.0,30.15,South,182,0.0,0.0,78,0.00,,,0.00,0,Wunderground v.1.15,2013-08-18 02:14:00,
2013-08-17 21:19:00,63.7,57.1,30.16,South,182,0.0,0.0,79,0.00,,,0.00,0,Wunderground v.1.15,2013-08-18 02:19:00,
2013-08-17 21:24:00,63.3,57.0,30.16,South,182,0.0,0.0,80,0.00,,,0.00,0,Wunderground v.1.15,2013-08-18 02:24:00,
2013-08-17 21:29:00,62.9,56.6,30.16,South,182,0.0,0.0,80,0.00,,,0.00,0,Wunderground v.1.15,2013-08-18 02:29:00,
2013-08-17 21:34:00,62.6,56.7,30.16,South,182,0.0,0.0,81,0.00,,,0.00,0,Wunderground v.1.15,2013-08-18 02:34:00,
2013-08-17 21:39:00,62.3,56.7,30.16,South,182,0.0,0.0,82,0.00,,,0.00,0,Wunderground v.1.15,2013-08-18 02:39:00,
2013-08-17 21:44:00,62.0,56.4,30.16,South,182,0.0,0.0,82,0.00,,,0.00,0,Wunderground v.1.15,2013-08-18 02:44:00,
2013-08-17 21:49:00,61.8,56.2,30.16,South,182,0.0,0.0,82,0.00,,,0.00,0,Wunderground v.1.15,2013-08-18 02:49:00,
2013-08-17 21:54:00,61.6,56.4,30.16,South,182,0.0,0.0,83,0.00,,,0.00,0,Wunderground v.1.15,2013-08-18 02:54:00,
2013-08-17 21:59:00,61.3,56.1,30.16,South,182,0.0,0.0,83,0.00,,,0.00,0,Wunderground v.1.15,2013-08-18 02:59:00,
2013-08-17 22:04:00,61.2,56.3,30.16,South,182,0.0,0.0,84,0.00,,,0.00,0,Wunderground v.1.15,2013-08-18 03:04:00,
2013-08-17 22:09:00,61.0,56.1,30.16,South,182,0.0,0.0,84,0.00,,,0.00,0,Wunderground v.1.15,2013-08-18 03:09:00,
2013-08-17 22:14:00,60.8,55.9,30.16,South,182,0.0,0.0,84,0.00,,,0.00,0,Wunderground v.1.15,2013-08-18 03:14:00,
2013-08-17 22:19:00,60.6,55.7,30.16,South,182,0.0,0.0,84,0.00,,,0.00,0,Wunderground v.1.15,2013-08-18 03:19:00,
2013-08-17 22:24:00,60.4,55.5,30.16,South,182,0.0,0.0,84,0.00,,,0.00,0,Wunderground v.1.15,2013-08-18 03:24:00,
2013-08-17 22:29:00,60.2,55.7,30.16,South,182,0.0,0.0,85,0.00,,,0.00,0,Wunderground v.1.15,2013-08-18 03:29:00,
2013-08-17 22:34:00,60.1,55.6,30.16,South,182,0.0,0.0,85,0.00,,,0.00,0,Wunderground v.1.15,2013-08-18 03:34:00,
2013-08-17 22:39:00,60.0,55.8,30.16,South,182,0.0,0.0,86,0.00,,,0.00,0,Wunderground v.1.15,2013-08-18 03:39:00,
2013-08-17 22:45:00,60.1,56.2,30.16,South,182,0.0,2.0,87,0.00,,,0.00,0,Wunderground v.1.15,2013-08-18 03:45:00,
2013-08-17 22:50:00,60.2,56.3,30.16,South,182,0.0,0.0,87,0.00,,,0.00,0,Wunderground v.1.15,2013-08-18 03:50:00,
2013-08-17 22:55:00,60.7,57.1,30.16,South,169,0.0,3.0,88,0.00,,,0.00,0,Wunderground v.1.15,2013-08-18 03:55:00,
2013-08-17 23:00:00,61.2,57.3,30.16,South,169,0.0,0.0,87,0.00,,,0.00,0,Wunderground v.1.15,2013-08-18 04:00:00,
2013-08-17 23:01:00,61.3,57.4,30.16,South,169,0.0,0.0,87,0.00,,,0.00,0,Wunderground v.1.15,2013-08-18 04:01:00,
2013-08-17 23:06:00,62.3,58.1,30.16,SSE,155,2.0,6.0,86,0.00,,,0.00,0,Wunderground v.1.15,2013-08-18 04:06:00,
2013-08-17 23:11:00,63.3,58.4,30.16,South,169,3.0,4.0,84,0.00,,,0.00,0,Wunderground v.1.15,2013-08-18 04:11:00,
2013-08-17 23:16:00,63.9,58.3,30.16,South,169,0.0,4.0,82,0.00,,,0.00,0,Wunderground v.1.15,2013-08-18 04:16:00,
2013-08-17 23:21:00,64.5,58.2,30.16,South,178,0.0,1.0,80,0.00,,,0.00,0,Wunderground v.1.15,2013-08-18 04:21:00,
2013-08-17 23:26:00,64.8,58.5,30.16,South,178,0.0,1.0,80,0.00,,,0.00,0,Wunderground v.1.15,2013-08-18 04:26:00,
2013-08-17 23:31:00,65.0,58.3,30.16,South,169,2.0,5.0,79,0.00,,,0.00,0,Wunderground v.1.15,2013-08-18 04:31:00,
2013-08-17 23:37:00,65.3,57.9,30.16,SSE,162,0.0,5.0,77,0.00,,,0.00,0,Wunderground v.1.15,2013-08-18 04:37:00,
2013-08-17 23:42:00,65.7,57.9,30.16,South,184,1.0,5.0,76,0.00,,,0.00,0,Wunderground v.1.15,2013-08-18 04:42:00,
2013-08-17 23:47:00,66.2,58.0,30.16,SSE,162,1.0,6.0,75,0.00,,,0.00,0,Wunderground v.1.15,2013-08-18 04:47:00,
2013-08-17 23:52:00,66.3,58.1,30.16,SSE,163,1.0,3.0,75,0.00,,,0.00,0,Wunderground v.1.15,2013-08-18 04:52:00,
2013-08-17 23:57:00,66.2,58.0,30.16,SSE,163,2.0,4.0,75,0.00,,,0.00,0,Wunderground v.1.15,2013-08-18 04:57:00,